sensor_id;sensor_type;location;lat;lon;timestamp;pressure;altitude;pressure_sealevel;temperature;humidity
60715;BME280;46564;53.096;8.246;2023-02-23T00:04:46;101021.28;;;6.16;96.77
60715;BME280;46564;53.096;8.246;2023-02-23T00:09:48;101027.59;;;6.23;96.87
60715;BME280;46564;53.096;8.246;2023-02-23T00:14:51;101026.06;;;6.28;96.82
60715;BME280;46564;53.096;8.246;2023-02-23T00:19:52;101034.06;;;6.32;96.95
60715;BME280;46564;53.096;8.246;2023-02-23T00:24:55;101029.03;;;6.37;97.14
60715;BME280;46564;53.096;8.246;2023-02-23T00:29:57;101038.72;;;6.41;96.98
60715;BME280;46564;53.096;8.246;2023-02-23T00:34:59;101043.25;;;6.47;97.16
60715;BME280;46564;53.096;8.246;2023-02-23T00:40:00;101037.22;;;6.48;97.17
60715;BME280;46564;53.096;8.246;2023-02-23T00:45:02;101039.19;;;6.53;97.32
60715;BME280;46564;53.096;8.246;2023-02-23T00:50:13;101046.34;;;6.59;97.28
60715;BME280;46564;53.096;8.246;2023-02-23T00:55:15;101042.00;;;6.60;97.37
60715;BME280;46564;53.096;8.246;2023-02-23T01:00:17;101039.47;;;6.61;97.33
60715;BME280;46564;53.096;8.246;2023-02-23T01:05:21;101047.31;;;6.63;97.19
60715;BME280;46564;53.096;8.246;2023-02-23T01:10:23;101038.69;;;6.64;97.33
60715;BME280;46564;53.096;8.246;2023-02-23T01:15:24;101037.03;;;6.66;97.57
60715;BME280;46564;53.096;8.246;2023-02-23T01:20:27;101030.16;;;6.68;97.35
60715;BME280;46564;53.096;8.246;2023-02-23T01:25:29;101041.47;;;6.68;97.20
60715;BME280;46564;53.096;8.246;2023-02-23T01:30:32;101038.16;;;6.72;97.42
60715;BME280;46564;53.096;8.246;2023-02-23T01:35:35;101037.38;;;6.75;97.60
60715;BME280;46564;53.096;8.246;2023-02-23T01:40:37;101042.47;;;6.72;97.47
60715;BME280;46564;53.096;8.246;2023-02-23T01:45:41;101026.84;;;6.72;97.41
60715;BME280;46564;53.096;8.246;2023-02-23T01:50:48;101036.50;;;6.75;97.33
60715;BME280;46564;53.096;8.246;2023-02-23T01:55:56;101028.56;;;6.71;97.45
60715;BME280;46564;53.096;8.246;2023-02-23T02:01:00;101033.13;;;6.77;97.50
60715;BME280;46564;53.096;8.246;2023-02-23T02:06:04;101034.97;;;6.81;97.41
60715;BME280;46564;53.096;8.246;2023-02-23T02:11:07;101034.00;;;6.78;97.51
60715;BME280;46564;53.096;8.246;2023-02-23T02:27:33;101024.94;;;6.68;97.65
60715;BME280;46564;53.096;8.246;2023-02-23T02:33:09;101020.59;;;6.67;97.83
60715;BME280;46564;53.096;8.246;2023-02-23T02:38:24;101020.72;;;6.70;97.66
60715;BME280;46564;53.096;8.246;2023-02-23T02:43:53;101026.69;;;6.67;97.92
60715;BME280;46564;53.096;8.246;2023-02-23T02:49:03;101019.75;;;6.68;97.87
60715;BME280;46564;53.096;8.246;2023-02-23T02:54:23;101020.47;;;6.64;98.01
60715;BME280;46564;53.096;8.246;2023-02-23T02:59:26;101015.28;;;6.64;97.92
60715;BME280;46564;53.096;8.246;2023-02-23T03:04:46;101016.97;;;6.63;97.86
60715;BME280;46564;53.096;8.246;2023-02-23T03:10:31;101026.41;;;6.60;98.24
60715;BME280;46564;53.096;8.246;2023-02-23T03:15:59;101021.19;;;6.60;98.16
60715;BME280;46564;53.096;8.246;2023-02-23T03:21:33;101025.53;;;6.59;98.30
60715;BME280;46564;53.096;8.246;2023-02-23T03:27:02;101028.19;;;6.61;98.42
60715;BME280;46564;53.096;8.246;2023-02-23T03:32:25;101024.63;;;6.59;98.54
60715;BME280;46564;53.096;8.246;2023-02-23T03:43:37;101037.44;;;6.54;98.59
60715;BME280;46564;53.096;8.246;2023-02-23T03:49:01;101038.38;;;6.54;98.48
60715;BME280;46564;53.096;8.246;2023-02-23T03:54:28;101036.47;;;6.50;98.55
60715;BME280;46564;53.096;8.246;2023-02-23T03:59:54;101042.50;;;6.49;98.67
60715;BME280;46564;53.096;8.246;2023-02-23T04:05:17;101052.03;;;6.49;98.68
60715;BME280;46564;53.096;8.246;2023-02-23T04:10:45;101045.84;;;6.47;98.92
60715;BME280;46564;53.096;8.246;2023-02-23T04:16:09;101051.06;;;6.47;98.85
60715;BME280;46564;53.096;8.246;2023-02-23T04:21:11;101053.66;;;6.47;98.79
60715;BME280;46564;53.096;8.246;2023-02-23T04:26:13;101061.41;;;6.45;98.79
60715;BME280;46564;53.096;8.246;2023-02-23T04:31:14;101063.25;;;6.48;98.99
60715;BME280;46564;53.096;8.246;2023-02-23T04:36:19;101052.78;;;6.46;99.16
60715;BME280;46564;53.096;8.246;2023-02-23T04:41:21;101058.81;;;6.45;99.18
60715;BME280;46564;53.096;8.246;2023-02-23T04:46:23;101051.72;;;6.41;99.01
60715;BME280;46564;53.096;8.246;2023-02-23T04:51:24;101057.88;;;6.43;99.31
60715;BME280;46564;53.096;8.246;2023-02-23T04:56:31;101053.47;;;6.42;99.34
60715;BME280;46564;53.096;8.246;2023-02-23T05:01:33;101061.41;;;6.45;99.56
60715;BME280;46564;53.096;8.246;2023-02-23T05:06:34;101057.94;;;6.45;99.08
60715;BME280;46564;53.096;8.246;2023-02-23T05:11:36;101070.28;;;6.50;99.19
60715;BME280;46564;53.096;8.246;2023-02-23T05:16:38;101067.34;;;6.41;99.05
60715;BME280;46564;53.096;8.246;2023-02-23T05:21:40;101070.81;;;6.42;99.14
60715;BME280;46564;53.096;8.246;2023-02-23T05:26:42;101067.28;;;6.40;99.05
60715;BME280;46564;53.096;8.246;2023-02-23T05:31:44;101066.31;;;6.37;99.29
60715;BME280;46564;53.096;8.246;2023-02-23T05:36:46;101066.38;;;6.39;99.20
60715;BME280;46564;53.096;8.246;2023-02-23T05:41:48;101071.41;;;6.34;99.08
60715;BME280;46564;53.096;8.246;2023-02-23T05:46:50;101077.47;;;6.35;99.04
60715;BME280;46564;53.096;8.246;2023-02-23T05:51:51;101071.41;;;6.34;99.33
60715;BME280;46564;53.096;8.246;2023-02-23T05:56:53;101075.03;;;6.38;99.53
60715;BME280;46564;53.096;8.246;2023-02-23T06:01:54;101086.31;;;6.39;99.27
60715;BME280;46564;53.096;8.246;2023-02-23T06:06:56;101087.06;;;6.36;99.21
60715;BME280;46564;53.096;8.246;2023-02-23T06:11:59;101084.16;;;6.28;99.20
60715;BME280;46564;53.096;8.246;2023-02-23T06:17:01;101094.69;;;6.31;99.37
60715;BME280;46564;53.096;8.246;2023-02-23T06:22:02;101094.50;;;6.27;99.10
60715;BME280;46564;53.096;8.246;2023-02-23T06:27:04;101105.03;;;6.30;99.08
60715;BME280;46564;53.096;8.246;2023-02-23T06:32:06;101106.81;;;6.31;99.24
60715;BME280;46564;53.096;8.246;2023-02-23T06:37:08;101110.19;;;6.28;99.34
60715;BME280;46564;53.096;8.246;2023-02-23T06:42:10;101110.13;;;6.27;99.33
60715;BME280;46564;53.096;8.246;2023-02-23T06:47:11;101123.19;;;6.28;99.56
60715;BME280;46564;53.096;8.246;2023-02-23T06:52:13;101125.66;;;6.25;99.22
60715;BME280;46564;53.096;8.246;2023-02-23T06:57:15;101123.19;;;6.28;99.36
60715;BME280;46564;53.096;8.246;2023-02-23T07:02:17;101123.81;;;6.23;99.47
60715;BME280;46564;53.096;8.246;2023-02-23T07:07:19;101124.66;;;6.22;99.38
60715;BME280;46564;53.096;8.246;2023-02-23T07:12:21;101134.22;;;6.23;99.32
60715;BME280;46564;53.096;8.246;2023-02-23T07:17:22;101133.22;;;6.19;99.25
60715;BME280;46564;53.096;8.246;2023-02-23T07:22:24;101145.66;;;6.26;99.34
60715;BME280;46564;53.096;8.246;2023-02-23T07:27:29;101137.00;;;6.27;99.53
60715;BME280;46564;53.096;8.246;2023-02-23T07:32:31;101136.38;;;6.33;99.64
60715;BME280;46564;53.096;8.246;2023-02-23T07:37:33;101138.84;;;6.30;99.66
60715;BME280;46564;53.096;8.246;2023-02-23T07:42:34;101147.47;;;6.29;99.65
60715;BME280;46564;53.096;8.246;2023-02-23T07:47:37;101155.25;;;6.29;99.42
60715;BME280;46564;53.096;8.246;2023-02-23T07:52:41;101159.78;;;6.33;99.53
60715;BME280;46564;53.096;8.246;2023-02-23T07:57:42;101173.59;;;6.32;99.46
60715;BME280;46564;53.096;8.246;2023-02-23T08:02:44;101177.97;;;6.33;99.65
60715;BME280;46564;53.096;8.246;2023-02-23T08:07:46;101178.78;;;6.32;99.42
60715;BME280;46564;53.096;8.246;2023-02-23T08:12:48;101177.16;;;6.34;99.95
60715;BME280;46564;53.096;8.246;2023-02-23T08:17:49;101189.41;;;6.36;99.84
60715;BME280;46564;53.096;8.246;2023-02-23T08:22:55;101181.78;;;6.41;99.70
60715;BME280;46564;53.096;8.246;2023-02-23T08:27:57;101190.28;;;6.37;99.83
60715;BME280;46564;53.096;8.246;2023-02-23T08:33:05;101193.94;;;6.42;99.58
60715;BME280;46564;53.096;8.246;2023-02-23T08:38:07;101189.91;;;6.49;99.76
60715;BME280;46564;53.096;8.246;2023-02-23T08:43:09;101202.97;;;6.50;99.71
60715;BME280;46564;53.096;8.246;2023-02-23T08:48:10;101202.19;;;6.53;99.60
60715;BME280;46564;53.096;8.246;2023-02-23T08:53:12;101199.69;;;6.54;99.50
60715;BME280;46564;53.096;8.246;2023-02-23T08:58:14;101206.75;;;6.59;100.00
60715;BME280;46564;53.096;8.246;2023-02-23T09:03:15;101203.34;;;6.60;99.79
60715;BME280;46564;53.096;8.246;2023-02-23T09:08:17;101199.25;;;6.66;99.71
60715;BME280;46564;53.096;8.246;2023-02-23T09:13:19;101211.38;;;6.66;99.67
60715;BME280;46564;53.096;8.246;2023-02-23T09:18:21;101201.84;;;6.66;99.67
60715;BME280;46564;53.096;8.246;2023-02-23T09:23:28;101206.19;;;6.66;99.59
60715;BME280;46564;53.096;8.246;2023-02-23T09:28:30;101211.50;;;6.69;99.75
60715;BME280;46564;53.096;8.246;2023-02-23T09:33:34;101207.50;;;6.77;99.70
60715;BME280;46564;53.096;8.246;2023-02-23T09:38:36;101208.31;;;6.76;99.47
60715;BME280;46564;53.096;8.246;2023-02-23T09:43:44;101214.28;;;6.73;99.66
60715;BME280;46564;53.096;8.246;2023-02-23T09:48:50;101222.84;;;6.71;99.61
60715;BME280;46564;53.096;8.246;2023-02-23T09:53:54;101221.91;;;6.69;99.46
60715;BME280;46564;53.096;8.246;2023-02-23T09:58:59;101225.81;;;6.58;99.23
60715;BME280;46564;53.096;8.246;2023-02-23T10:09:30;101225.94;;;6.61;99.53
60715;BME280;46564;53.096;8.246;2023-02-23T10:15:00;101226.19;;;6.67;99.42
60715;BME280;46564;53.096;8.246;2023-02-23T10:20:29;101236.94;;;6.76;99.48
60715;BME280;46564;53.096;8.246;2023-02-23T10:25:39;101235.22;;;6.77;99.44
60715;BME280;46564;53.096;8.246;2023-02-23T10:30:43;101235.41;;;6.81;99.41
60715;BME280;46564;53.096;8.246;2023-02-23T10:35:45;101231.63;;;6.73;99.38
60715;BME280;46564;53.096;8.246;2023-02-23T10:40:53;101244.69;;;6.75;99.24
60715;BME280;46564;53.096;8.246;2023-02-23T10:45:56;101242.22;;;6.78;99.43
60715;BME280;46564;53.096;8.246;2023-02-23T10:51:01;101245.13;;;6.85;99.14
60715;BME280;46564;53.096;8.246;2023-02-23T10:56:12;101245.25;;;6.88;98.82
60715;BME280;46564;53.096;8.246;2023-02-23T11:01:38;101252.13;;;6.86;99.10
60715;BME280;46564;53.096;8.246;2023-02-23T11:07:29;101251.63;;;6.74;98.97
60715;BME280;46564;53.096;8.246;2023-02-23T11:12:39;101260.31;;;6.75;98.95
60715;BME280;46564;53.096;8.246;2023-02-23T11:17:43;101240.94;;;6.68;98.76
60715;BME280;46564;53.096;8.246;2023-02-23T11:22:45;101249.72;;;6.70;98.84
60715;BME280;46564;53.096;8.246;2023-02-23T11:27:48;101248.88;;;6.71;98.75
60715;BME280;46564;53.096;8.246;2023-02-23T11:32:55;101247.13;;;6.70;98.71
60715;BME280;46564;53.096;8.246;2023-02-23T11:37:58;101250.66;;;6.72;98.82
60715;BME280;46564;53.096;8.246;2023-02-23T11:43:07;101249.38;;;6.83;98.81
60715;BME280;46564;53.096;8.246;2023-02-23T11:48:41;101250.25;;;6.84;99.04
60715;BME280;46564;53.096;8.246;2023-02-23T11:53:43;101250.38;;;6.87;98.54
60715;BME280;46564;53.096;8.246;2023-02-23T11:58:49;101239.22;;;6.89;99.00
60715;BME280;46564;53.096;8.246;2023-02-23T12:03:56;101241.69;;;6.86;98.82
60715;BME280;46564;53.096;8.246;2023-02-23T12:09:03;101247.59;;;6.82;99.01
60715;BME280;46564;53.096;8.246;2023-02-23T12:14:19;101251.56;;;6.72;98.84
60715;BME280;46564;53.096;8.246;2023-02-23T12:19:30;101260.75;;;6.64;98.76
60715;BME280;46564;53.096;8.246;2023-02-23T12:24:42;101259.31;;;6.50;98.74
60715;BME280;46564;53.096;8.246;2023-02-23T12:40:27;101251.63;;;6.53;98.47
60715;BME280;46564;53.096;8.246;2023-02-23T12:45:49;101251.84;;;6.58;98.63
60715;BME280;46564;53.096;8.246;2023-02-23T12:50:55;101248.50;;;6.62;98.53
60715;BME280;46564;53.096;8.246;2023-02-23T12:56:28;101255.06;;;6.73;98.65
60715;BME280;46564;53.096;8.246;2023-02-23T13:01:57;101254.59;;;6.83;98.47
60715;BME280;46564;53.096;8.246;2023-02-23T13:18:11;101246.56;;;7.22;98.54
60715;BME280;46564;53.096;8.246;2023-02-23T13:33:44;101242.84;;;7.40;97.93
60715;BME280;46564;53.096;8.246;2023-02-23T13:44:43;101237.03;;;7.47;97.08
60715;BME280;46564;53.096;8.246;2023-02-23T13:50:01;101239.16;;;7.57;96.65
60715;BME280;46564;53.096;8.246;2023-02-23T14:00:26;101246.88;;;7.54;95.34
60715;BME280;46564;53.096;8.246;2023-02-23T14:05:28;101243.31;;;7.52;94.89
60715;BME280;46564;53.096;8.246;2023-02-23T14:10:44;101247.03;;;7.59;94.40
60715;BME280;46564;53.096;8.246;2023-02-23T14:16:16;101244.44;;;7.59;93.87
60715;BME280;46564;53.096;8.246;2023-02-23T14:21:25;101242.41;;;7.52;93.29
60715;BME280;46564;53.096;8.246;2023-02-23T14:31:30;101238.94;;;7.51;92.49
60715;BME280;46564;53.096;8.246;2023-02-23T14:36:35;101241.81;;;7.59;92.32
60715;BME280;46564;53.096;8.246;2023-02-23T14:47:11;101235.16;;;7.43;91.70
60715;BME280;46564;53.096;8.246;2023-02-23T14:52:20;101242.84;;;7.40;91.71
60715;BME280;46564;53.096;8.246;2023-02-23T14:57:24;101243.59;;;7.36;91.35
60715;BME280;46564;53.096;8.246;2023-02-23T15:02:29;101243.22;;;7.26;91.32
60715;BME280;46564;53.096;8.246;2023-02-23T15:07:37;101238.81;;;7.24;91.28
60715;BME280;46564;53.096;8.246;2023-02-23T15:12:40;101243.84;;;7.19;91.28
60715;BME280;46564;53.096;8.246;2023-02-23T15:17:44;101245.13;;;7.08;91.66
60715;BME280;46564;53.096;8.246;2023-02-23T15:22:50;101244.91;;;7.02;91.71
60715;BME280;46564;53.096;8.246;2023-02-23T15:27:54;101254.25;;;6.97;92.01
60715;BME280;46564;53.096;8.246;2023-02-23T15:33:10;101274.78;;;6.68;92.46
60715;BME280;46564;53.096;8.246;2023-02-23T15:38:15;101283.06;;;6.36;93.22
60715;BME280;46564;53.096;8.246;2023-02-23T15:43:41;101295.59;;;5.87;93.60
60715;BME280;46564;53.096;8.246;2023-02-23T15:48:46;101299.69;;;5.62;94.18
60715;BME280;46564;53.096;8.246;2023-02-23T15:53:48;101309.41;;;5.46;94.48
60715;BME280;46564;53.096;8.246;2023-02-23T15:58:51;101311.25;;;5.31;94.83
60715;BME280;46564;53.096;8.246;2023-02-23T16:04:05;101320.19;;;5.18;95.07
60715;BME280;46564;53.096;8.246;2023-02-23T16:09:13;101323.47;;;5.14;95.53
60715;BME280;46564;53.096;8.246;2023-02-23T16:14:23;101318.03;;;5.09;95.69
60715;BME280;46564;53.096;8.246;2023-02-23T16:19:27;101326.88;;;4.95;95.72
60715;BME280;46564;53.096;8.246;2023-02-23T16:24:29;101323.16;;;4.90;95.55
60715;BME280;46564;53.096;8.246;2023-02-23T16:29:32;101319.44;;;4.85;95.39
60715;BME280;46564;53.096;8.246;2023-02-23T16:34:35;101324.56;;;4.83;95.15
60715;BME280;46564;53.096;8.246;2023-02-23T16:39:44;101324.63;;;4.85;95.15
60715;BME280;46564;53.096;8.246;2023-02-23T16:44:46;101324.63;;;4.85;95.03
60715;BME280;46564;53.096;8.246;2023-02-23T16:49:48;101327.06;;;4.82;94.80
60715;BME280;46564;53.096;8.246;2023-02-23T16:54:50;101324.84;;;4.71;94.58
60715;BME280;46564;53.096;8.246;2023-02-23T16:59:56;101334.41;;;4.72;94.52
60715;BME280;46564;53.096;8.246;2023-02-23T17:04:57;101341.97;;;4.68;94.28
60715;BME280;46564;53.096;8.246;2023-02-23T17:09:59;101350.19;;;4.59;94.07
60715;BME280;46564;53.096;8.246;2023-02-23T17:15:01;101354.63;;;4.62;93.83
60715;BME280;46564;53.096;8.246;2023-02-23T17:20:04;101343.72;;;4.51;93.69
60715;BME280;46564;53.096;8.246;2023-02-23T17:25:17;101349.63;;;4.48;93.00
60715;BME280;46564;53.096;8.246;2023-02-23T17:30:20;101353.88;;;4.46;92.38
60715;BME280;46564;53.096;8.246;2023-02-23T17:35:22;101356.38;;;4.45;92.16
60715;BME280;46564;53.096;8.246;2023-02-23T17:40:24;101353.56;;;4.40;91.65
60715;BME280;46564;53.096;8.246;2023-02-23T17:45:27;101358.47;;;4.35;91.06
60715;BME280;46564;53.096;8.246;2023-02-23T17:50:29;101367.91;;;4.33;90.28
60715;BME280;46564;53.096;8.246;2023-02-23T17:55:30;101352.34;;;4.33;90.31
60715;BME280;46564;53.096;8.246;2023-02-23T18:00:32;101358.69;;;4.22;89.78
60715;BME280;46564;53.096;8.246;2023-02-23T18:05:38;101360.13;;;4.17;89.34
60715;BME280;46564;53.096;8.246;2023-02-23T18:10:39;101359.66;;;4.07;89.68
60715;BME280;46564;53.096;8.246;2023-02-23T18:15:41;101374.81;;;4.00;89.05
60715;BME280;46564;53.096;8.246;2023-02-23T18:20:57;101368.72;;;3.99;89.33
60715;BME280;46564;53.096;8.246;2023-02-23T18:26:07;101368.63;;;3.98;89.30
60715;BME280;46564;53.096;8.246;2023-02-23T18:31:16;101372.84;;;3.96;89.34
60715;BME280;46564;53.096;8.246;2023-02-23T18:36:28;101367.59;;;3.94;89.38
60715;BME280;46564;53.096;8.246;2023-02-23T18:41:30;101361.59;;;3.95;89.43
60715;BME280;46564;53.096;8.246;2023-02-23T18:46:33;101358.94;;;3.94;89.51
60715;BME280;46564;53.096;8.246;2023-02-23T18:51:35;101359.72;;;3.93;89.52
60715;BME280;46564;53.096;8.246;2023-02-23T18:56:36;101356.66;;;3.83;89.66
60715;BME280;46564;53.096;8.246;2023-02-23T19:01:39;101350.06;;;3.74;89.81
60715;BME280;46564;53.096;8.246;2023-02-23T19:06:42;101354.53;;;3.60;89.74
60715;BME280;46564;53.096;8.246;2023-02-23T19:11:44;101347.88;;;3.48;89.78
60715;BME280;46564;53.096;8.246;2023-02-23T19:16:46;101357.28;;;3.31;89.91
60715;BME280;46564;53.096;8.246;2023-02-23T19:21:47;101353.69;;;3.13;90.25
60715;BME280;46564;53.096;8.246;2023-02-23T19:26:49;101356.38;;;2.99;89.93
60715;BME280;46564;53.096;8.246;2023-02-23T19:31:50;101362.00;;;2.92;90.53
60715;BME280;46564;53.096;8.246;2023-02-23T19:36:52;101361.47;;;2.83;90.63
60715;BME280;46564;53.096;8.246;2023-02-23T19:41:54;101352.19;;;2.72;90.86
60715;BME280;46564;53.096;8.246;2023-02-23T19:46:56;101360.84;;;2.57;91.20
60715;BME280;46564;53.096;8.246;2023-02-23T19:51:57;101359.50;;;2.49;91.35
60715;BME280;46564;53.096;8.246;2023-02-23T19:57:00;101354.78;;;2.42;91.39
60715;BME280;46564;53.096;8.246;2023-02-23T20:02:02;101362.88;;;2.33;91.59
60715;BME280;46564;53.096;8.246;2023-02-23T20:07:03;101359.84;;;2.25;91.66
60715;BME280;46564;53.096;8.246;2023-02-23T20:12:05;101370.53;;;2.17;91.79
60715;BME280;46564;53.096;8.246;2023-02-23T20:17:06;101378.00;;;2.12;91.71
60715;BME280;46564;53.096;8.246;2023-02-23T20:22:09;101368.19;;;2.06;92.19
60715;BME280;46564;53.096;8.246;2023-02-23T20:27:10;101367.13;;;2.03;91.88
60715;BME280;46564;53.096;8.246;2023-02-23T20:32:12;101372.06;;;2.00;92.62
60715;BME280;46564;53.096;8.246;2023-02-23T20:37:14;101364.31;;;2.00;92.29
60715;BME280;46564;53.096;8.246;2023-02-23T20:42:15;101362.72;;;2.02;92.45
60715;BME280;46564;53.096;8.246;2023-02-23T20:47:17;101361.13;;;2.04;92.68
60715;BME280;46564;53.096;8.246;2023-02-23T20:52:19;101349.41;;;2.09;92.67
60715;BME280;46564;53.096;8.246;2023-02-23T20:57:20;101342.63;;;2.11;93.09
60715;BME280;46564;53.096;8.246;2023-02-23T21:02:22;101341.00;;;2.13;92.82
60715;BME280;46564;53.096;8.246;2023-02-23T21:07:23;101338.41;;;2.13;92.62
60715;BME280;46564;53.096;8.246;2023-02-23T21:12:26;101336.84;;;2.15;92.78
60715;BME280;46564;53.096;8.246;2023-02-23T21:17:28;101338.25;;;2.10;92.69
60715;BME280;46564;53.096;8.246;2023-02-23T21:22:30;101336.91;;;2.02;92.61
60715;BME280;46564;53.096;8.246;2023-02-23T21:27:31;101333.44;;;2.01;92.55
60715;BME280;46564;53.096;8.246;2023-02-23T21:32:33;101334.50;;;2.05;92.10
60715;BME280;46564;53.096;8.246;2023-02-23T21:37:38;101348.56;;;2.10;92.07
60715;BME280;46564;53.096;8.246;2023-02-23T21:42:41;101332.38;;;2.12;91.93
60715;BME280;46564;53.096;8.246;2023-02-23T21:47:44;101332.47;;;2.14;91.57
60715;BME280;46564;53.096;8.246;2023-02-23T21:52:46;101336.84;;;2.15;91.37
60715;BME280;46564;53.096;8.246;2023-02-23T21:57:49;101327.56;;;2.19;91.16
60715;BME280;46564;53.096;8.246;2023-02-23T22:02:51;101325.06;;;2.20;90.61
60715;BME280;46564;53.096;8.246;2023-02-23T22:07:54;101325.44;;;2.26;90.68
60715;BME280;46564;53.096;8.246;2023-02-23T22:12:55;101327.22;;;2.27;90.11
60715;BME280;46564;53.096;8.246;2023-02-23T22:17:57;101322.84;;;2.26;90.11
60715;BME280;46564;53.096;8.246;2023-02-23T22:22:59;101307.59;;;2.31;89.69
60715;BME280;46564;53.096;8.246;2023-02-23T22:28:00;101303.34;;;2.32;89.93
60715;BME280;46564;53.096;8.246;2023-02-23T22:33:02;101302.44;;;2.31;89.76
60715;BME280;46564;53.096;8.246;2023-02-23T22:38:03;101296.47;;;2.32;89.60
60715;BME280;46564;53.096;8.246;2023-02-23T22:43:05;101283.56;;;2.32;89.69
60715;BME280;46564;53.096;8.246;2023-02-23T22:48:09;101277.50;;;2.32;89.67
60715;BME280;46564;53.096;8.246;2023-02-23T22:53:11;101268.22;;;2.35;89.34
60715;BME280;46564;53.096;8.246;2023-02-23T22:58:12;101277.06;;;2.39;89.24
60715;BME280;46564;53.096;8.246;2023-02-23T23:03:15;101264.31;;;2.42;88.79
60715;BME280;46564;53.096;8.246;2023-02-23T23:08:17;101251.31;;;2.40;89.46
60715;BME280;46564;53.096;8.246;2023-02-23T23:13:18;101245.31;;;2.41;89.18
60715;BME280;46564;53.096;8.246;2023-02-23T23:18:20;101236.84;;;2.44;88.91
60715;BME280;46564;53.096;8.246;2023-02-23T23:23:24;101226.69;;;2.47;88.77
60715;BME280;46564;53.096;8.246;2023-02-23T23:28:26;101228.66;;;2.51;88.33
60715;BME280;46564;53.096;8.246;2023-02-23T23:33:29;101217.56;;;2.54;88.30
60715;BME280;46564;53.096;8.246;2023-02-23T23:38:30;101216.16;;;2.59;88.08
60715;BME280;46564;53.096;8.246;2023-02-23T23:43:33;101213.50;;;2.57;88.06
60715;BME280;46564;53.096;8.246;2023-02-23T23:48:37;101201.53;;;2.59;87.92
60715;BME280;46564;53.096;8.246;2023-02-23T23:53:39;101193.69;;;2.58;87.82
60715;BME280;46564;53.096;8.246;2023-02-23T23:58:41;101184.41;;;2.61;87.71
